Time;durP1;ratioP1;P1;durP2;ratioP2;P2;SDS_P1;SDS_P2;PMS_P1;PMS_P2;Temp;Humidity;BMP_temperature;BMP_pressure;BME280_temperature;BME280_humidity;BME280_pressure;Samples;Min_cycle;Max_cycle;Signal;HPM_P1;HPM_P2
2022/12/03 00:01:29;;;;;;;17.05;15.35;;;;;;;6.68;75.46;95625.16;5017640;28;20192;-72
2022/12/03 00:03:56;;;;;;;15.93;14.52;;;;;;;6.71;75.34;95630.00;5017504;28;20206;-72
2022/12/03 00:06:24;;;;;;;15.32;13.95;;;;;;;6.72;75.30;95634.38;5016465;28;20199;-71
2022/12/03 00:08:53;;;;;;;15.98;14.55;;;;;;;6.72;75.14;95634.38;5016650;28;20198;-71
2022/12/03 00:11:22;;;;;;;12.98;11.88;;;;;;;6.73;75.29;95636.00;5017579;28;20187;-72
2022/12/03 00:13:49;;;;;;;13.77;12.57;;;;;;;6.74;75.17;95634.84;5017186;28;20302;-72
2022/12/03 00:16:17;;;;;;;14.30;13.10;;;;;;;6.74;74.74;95643.09;5016438;28;20205;-71
2022/12/03 00:18:44;;;;;;;14.50;13.15;;;;;;;6.74;74.98;95648.56;5017287;28;20187;-71
2022/12/03 00:21:12;;;;;;;14.30;13.10;;;;;;;6.77;74.91;95654.56;5016446;28;20195;-71
2022/12/03 00:23:39;;;;;;;13.70;12.55;;;;;;;6.76;74.66;95656.50;5016301;28;20191;-71
2022/12/03 00:26:08;;;;;;;12.70;11.70;;;;;;;6.75;74.77;95649.38;5016523;28;20243;-71
2022/12/03 00:28:38;;;;;;;12.02;10.95;;;;;;;6.73;74.92;95651.63;5033247;28;20214;-71
2022/12/03 00:31:06;;;;;;;11.40;10.40;;;;;;;6.72;74.97;95653.56;5016351;28;20192;-71
2022/12/03 00:33:36;;;;;;;11.77;10.82;;;;;;;6.71;75.15;95651.94;5015783;28;20210;-71
2022/12/03 00:36:07;;;;;;;11.93;10.93;;;;;;;6.70;74.97;95652.25;5015723;28;20265;-71
2022/12/03 00:38:36;;;;;;;11.65;10.65;;;;;;;6.70;75.23;95657.75;5016025;28;20201;-71
2022/12/03 00:41:03;;;;;;;11.32;10.38;;;;;;;6.72;75.03;95655.50;5032297;28;20210;-71
2022/12/03 00:43:31;;;;;;;12.57;11.48;;;;;;;6.65;75.46;95655.13;5015768;28;20191;-71
2022/12/03 00:46:01;;;;;;;11.50;10.50;;;;;;;6.65;75.08;95658.69;5016460;28;20187;-71
2022/12/03 00:48:29;;;;;;;11.23;10.25;;;;;;;6.66;75.44;95667.72;5016903;28;20203;-71
2022/12/03 00:50:58;;;;;;;9.75;8.95;;;;;;;6.62;74.66;95663.97;5032631;28;20203;-71
2022/12/03 00:53:26;;;;;;;10.75;9.85;;;;;;;6.58;74.47;95666.53;5015779;28;20563;-71
2022/12/03 00:55:55;;;;;;;10.48;9.60;;;;;;;6.59;74.92;95673.63;5016544;28;20222;-71
2022/12/03 00:58:22;;;;;;;11.40;10.40;;;;;;;6.61;74.69;95676.88;5015356;28;20215;-70
2022/12/03 01:00:51;;;;;;;11.32;10.32;;;;;;;6.61;74.86;95673.31;5014884;28;20618;-70
2022/12/03 01:03:21;;;;;;;11.00;10.00;;;;;;;6.59;74.80;95672.81;5015730;28;20199;-71
2022/12/03 01:05:48;;;;;;;10.60;9.60;;;;;;;6.57;75.04;95681.34;5031935;28;20534;-71
2022/12/03 01:08:19;;;;;;;10.75;9.85;;;;;;;6.56;75.05;95677.00;5016502;28;20200;-70
2022/12/03 01:10:49;;;;;;;11.38;10.48;;;;;;;6.58;75.16;95679.44;5015543;28;20194;-70
2022/12/03 01:13:17;;;;;;;11.68;10.68;;;;;;;6.60;75.29;95682.66;4999584;28;20203;-70
2022/12/03 01:15:45;;;;;;;11.80;10.77;;;;;;;6.63;75.42;95693.00;5015283;28;20219;-70
2022/12/03 01:18:12;;;;;;;13.13;11.82;;;;;;;6.61;75.27;95690.59;5014963;28;20214;-70
2022/12/03 01:20:48;;;;;;;11.80;10.80;;;;;;;6.62;75.33;95692.19;5015129;28;20210;-71
2022/12/03 01:23:17;;;;;;;12.55;11.35;;;;;;;6.65;75.08;95691.59;5016119;28;20191;-71
2022/12/03 01:25:45;;;;;;;12.40;11.38;;;;;;;6.65;75.21;95694.31;5031488;28;20234;-71
2022/12/03 01:28:14;;;;;;;12.80;11.70;;;;;;;6.65;75.46;95694.31;5031535;28;20543;-71
2022/12/03 01:33:24;;;;;;;12.13;11.13;;;;;;;6.61;75.38;95695.22;5015648;28;20211;-71
2022/12/03 01:35:53;;;;;;;12.63;11.50;;;;;;;6.59;74.97;95692.00;5015819;28;20215;-71
2022/12/03 01:38:23;;;;;;;12.02;10.98;;;;;;;6.56;75.43;95689.91;5015428;28;20237;-71
2022/12/03 01:40:53;;;;;;;11.95;10.95;;;;;;;6.57;75.09;95686.81;5031744;28;20211;-71
2022/12/03 01:43:21;;;;;;;12.20;11.10;;;;;;;6.56;75.71;95692.63;5015924;28;20194;-71
2022/12/03 01:45:49;;;;;;;12.43;11.43;;;;;;;6.54;75.35;95690.22;5015662;28;20191;-71
2022/12/03 01:48:17;;;;;;;12.40;11.40;;;;;;;6.56;75.87;95687.97;5015233;28;20206;-71
2022/12/03 01:50:45;;;;;;;11.13;10.23;;;;;;;6.55;75.46;95691.81;5014499;28;20214;-71
2022/12/03 01:53:18;;;;;;;11.82;10.82;;;;;;;6.56;75.33;95687.97;5015453;28;20202;-71
2022/12/03 01:55:47;;;;;;;12.05;11.05;;;;;;;6.56;75.67;95681.66;5015465;28;20254;-71
2022/12/03 01:58:15;;;;;;;12.10;11.10;;;;;;;6.58;75.32;95682.19;5015214;28;20214;-70
2022/12/03 02:00:44;;;;;;;12.40;11.30;;;;;;;6.58;75.56;95680.25;5030936;28;20207;-70
2022/12/03 02:03:19;;;;;;;11.82;10.82;;;;;;;6.57;75.37;95684.09;5015540;28;20604;-70
2022/12/03 02:05:46;;;;;;;12.00;10.77;;;;;;;6.54;75.36;95681.19;5014590;28;20198;-71
2022/12/03 02:08:39;;;;;;;12.50;11.40;;;;;;;6.55;75.59;95689.09;5015222;28;20200;-71
2022/12/03 02:11:09;;;;;;;12.18;11.07;;;;;;;6.55;75.97;95685.53;5015574;28;20191;-71
2022/12/03 02:13:38;;;;;;;13.13;12.02;;;;;;;6.55;75.66;95683.59;5030823;28;20202;-71
2022/12/03 02:16:08;;;;;;;12.25;11.25;;;;;;;6.53;75.63;95685.03;5015562;28;20211;-71
2022/12/03 02:18:37;;;;;;;11.88;10.80;;;;;;;6.50;75.34;95689.22;5015328;28;20194;-71
2022/12/03 02:21:15;;;;;;;12.57;11.48;;;;;;;6.49;75.51;95685.66;5015415;28;20198;-71
2022/12/03 02:23:51;;;;;;;12.93;11.82;;;;;;;6.49;75.80;95682.91;5030663;28;20202;-71
2022/12/03 02:26:24;;;;;;;12.30;11.25;;;;;;;6.45;75.48;95681.13;5030257;28;20319;-71
2022/12/03 02:28:54;;;;;;;11.75;10.75;;;;;;;6.43;75.83;95689.66;5034883;28;20277;-71
2022/12/03 02:31:21;;;;;;;12.23;11.15;;;;;;;6.43;75.46;95683.38;5017794;28;20190;-71
2022/12/03 02:33:50;;;;;;;11.93;10.80;;;;;;;6.41;75.33;95672.72;5034965;28;20207;-71
2022/12/03 02:36:18;;;;;;;13.15;11.82;;;;;;;6.42;75.58;95668.84;5017164;28;20218;-71
2022/12/03 02:38:46;;;;;;;13.57;12.38;;;;;;;6.44;75.74;95674.03;5018137;28;20186;-72
2022/12/03 02:43:59;;;;;;;12.82;11.68;;;;;;;6.46;75.72;95688.19;5033687;28;20210;-72
2022/12/03 02:46:28;;;;;;;13.20;12.00;;;;;;;6.47;75.37;95684.38;5034475;28;20198;-72
2022/12/03 02:48:57;;;;;;;12.93;11.73;;;;;;;6.43;75.64;95686.13;5034860;28;20190;-72
2022/12/03 02:51:27;;;;;;;12.57;11.38;;;;;;;6.38;75.76;95684.28;5034929;28;20187;-72
2022/12/03 02:54:00;;;;;;;13.07;11.80;;;;;;;6.35;75.81;95671.19;5017073;28;20217;-71
2022/12/03 02:56:30;;;;;;;12.63;11.40;;;;;;;6.37;75.62;95668.97;5017664;28;20226;-71
2022/12/03 02:59:06;;;;;;;12.48;11.38;;;;;;;6.40;76.24;95676.56;5017131;28;20202;-72
2022/12/03 03:01:36;;;;;;;12.55;11.45;;;;;;;6.39;75.97;95674.97;5017184;28;20202;-71
2022/12/03 03:04:06;;;;;;;12.20;11.13;;;;;;;6.43;75.55;95675.97;5034719;28;20217;-72
2022/12/03 03:06:36;;;;;;;12.55;11.45;;;;;;;6.47;75.73;95679.69;5033610;28;20317;-72
2022/12/03 03:09:07;;;;;;;12.10;11.00;;;;;;;6.49;75.50;95676.63;5017347;28;20520;-72
2022/12/03 03:11:36;;;;;;;12.20;11.10;;;;;;;6.49;75.48;95682.91;5017165;28;20630;-71
2022/12/03 03:14:09;;;;;;;12.23;11.13;;;;;;;6.49;75.68;95671.13;5034678;28;20185;-71
2022/12/03 03:16:39;;;;;;;12.60;11.40;;;;;;;6.47;75.43;95674.22;5034914;28;20211;-72
2022/12/03 03:19:06;;;;;;;12.23;11.20;;;;;;;6.46;75.73;95677.25;5034287;28;20607;-72
2022/12/03 03:21:34;;;;;;;11.90;10.93;;;;;;;6.44;75.55;95674.03;5034264;28;20190;-72
2022/12/03 03:24:03;;;;;;;10.93;10.00;;;;;;;6.43;76.14;95666.94;5035629;28;20209;-72
2022/12/03 03:26:31;;;;;;;11.15;10.25;;;;;;;6.44;76.05;95668.53;5036962;28;20242;-72
2022/12/03 03:29:01;;;;;;;11.35;10.35;;;;;;;6.43;75.82;95669.66;5020349;28;20202;-72
2022/12/03 03:31:31;;;;;;;10.80;9.80;;;;;;;6.41;75.69;95667.22;5020643;28;20226;-72
2022/12/03 03:33:58;;;;;;;10.98;9.98;;;;;;;6.46;75.92;95669.84;5020439;28;20206;-72
2022/12/03 03:36:26;;;;;;;10.13;9.23;;;;;;;6.45;75.45;95668.22;5038185;28;20218;-71
2022/12/03 03:38:54;;;;;;;10.45;9.65;;;;;;;6.48;75.42;95677.75;5038236;28;20187;-71
2022/12/03 03:41:22;;;;;;;11.10;10.20;;;;;;;6.47;75.36;95681.63;5020318;28;20206;-71
2022/12/03 03:43:53;;;;;;;10.43;9.57;;;;;;;6.44;75.52;95671.28;5020358;28;20199;-71
2022/12/03 03:46:23;;;;;;;11.30;10.30;;;;;;;6.42;75.61;95684.47;5020328;28;20194;-71
2022/12/03 03:48:59;;;;;;;10.93;10.02;;;;;;;6.45;75.38;95678.38;5019872;28;20206;-70
2022/12/03 03:51:30;;;;;;;10.57;9.70;;;;;;;6.43;75.68;95683.38;5037355;28;20191;-70
2022/12/03 03:54:00;;;;;;;10.30;9.40;;;;;;;6.41;75.13;95683.66;5036727;28;20214;-71
2022/12/03 03:56:28;;;;;;;9.60;8.80;;;;;;;6.43;75.35;95688.84;5036599;28;20210;-71
2022/12/03 03:58:58;;;;;;;10.25;9.43;;;;;;;6.41;75.45;95678.19;5036589;28;20209;-71
2022/12/03 04:01:28;;;;;;;9.35;8.65;;;;;;;6.38;75.85;95683.47;5036326;28;20202;-71
2022/12/03 04:04:03;;;;;;;9.60;8.90;;;;;;;6.39;75.68;95679.59;5037353;28;20183;-71
2022/12/03 04:06:34;;;;;;;9.30;8.55;;;;;;;6.37;75.67;95677.19;5037015;28;20511;-71
2022/12/03 04:09:02;;;;;;;9.43;8.68;;;;;;;6.39;76.08;95683.19;5019748;28;20634;-71
2022/12/03 04:14:18;;;;;;;10.15;9.25;;;;;;;6.43;76.03;95703.34;5020359;28;20190;-71
2022/12/03 04:16:47;;;;;;;9.05;8.35;;;;;;;6.40;75.51;95717.69;5019974;28;20218;-71
2022/12/03 04:19:18;;;;;;;9.10;8.40;;;;;;;6.39;75.93;95707.84;5019288;28;20688;-72
2022/12/03 04:24:31;;;;;;;9.00;8.30;;;;;;;6.41;75.73;95704.78;5019269;28;20198;-71
2022/12/03 04:29:53;;;;;;;9.20;8.50;;;;;;;6.43;75.71;95714.31;4937781;29;20209;-72
2022/12/03 04:38:01;;;;;;;9.38;8.57;;;;;;;6.42;76.01;95718.16;4937609;29;20201;-71
2022/12/03 04:43:13;;;;;;;8.80;8.10;;;;;;;6.41;76.23;95718.47;4937504;29;20201;-71
2022/12/03 04:45:41;;;;;;;8.75;8.13;;;;;;;6.41;75.91;95715.75;4921579;29;20209;-71
2022/12/03 04:48:12;;;;;;;10.23;9.32;;;;;;;6.42;75.84;95715.41;4922153;29;20630;-72
2022/12/03 04:50:42;;;;;;;9.38;8.63;;;;;;;6.41;75.65;95711.06;4937354;29;20214;-72
2022/12/03 04:53:10;;;;;;;8.70;8.00;;;;;;;6.39;76.10;95710.59;4937525;29;20232;-71
2022/12/03 04:55:39;;;;;;;8.75;7.95;;;;;;;6.38;76.05;95713.63;4937359;29;20305;-71
2022/12/03 04:58:07;;;;;;;9.85;8.95;;;;;;;6.38;76.33;95708.94;4937299;29;20224;-71
2022/12/03 05:00:35;;;;;;;9.07;8.38;;;;;;;6.37;76.19;95710.06;4936894;29;20217;-70
2022/12/03 05:03:02;;;;;;;8.73;8.02;;;;;;;6.37;75.95;95709.25;4937210;29;20220;-69
2022/12/03 05:05:30;;;;;;;9.60;8.88;;;;;;;6.39;75.86;95721.53;4963887;28;20269;-69
2022/12/03 05:07:58;;;;;;;9.07;8.38;;;;;;;6.39;76.16;95724.28;4996847;28;20184;-69
2022/12/03 05:10:26;;;;;;;9.38;8.68;;;;;;;6.38;76.14;95722.66;4995872;28;20206;-69
2022/12/03 05:12:57;;;;;;;8.35;7.65;;;;;;;6.38;76.45;95721.84;4995769;28;20235;-71
2022/12/03 05:15:25;;;;;;;9.45;8.63;;;;;;;6.39;75.97;95720.72;4995701;28;20211;-69
2022/12/03 05:17:53;;;;;;;9.80;8.93;;;;;;;6.38;75.95;95722.66;4995724;28;20200;-70
2022/12/03 05:23:08;;;;;;;9.13;8.25;;;;;;;6.33;75.89;95721.97;4995236;28;20230;-69
2022/12/03 05:25:37;;;;;;;8.50;7.72;;;;;;;6.33;75.81;95724.72;5003885;28;20238;-68
2022/12/03 05:28:06;;;;;;;8.30;7.50;;;;;;;6.29;75.92;95726.44;5016095;28;20198;-68
2022/12/03 05:30:39;;;;;;;9.13;7.82;;;;;;;6.29;75.66;95734.66;5014952;28;20199;-68
2022/12/03 05:33:07;;;;;;;9.00;8.10;;;;;;;6.27;75.57;95727.56;5016109;28;20179;-71
2022/12/03 05:35:36;;;;;;;8.80;7.38;;;;;;;6.30;75.90;95728.06;5016062;28;20241;-67
2022/12/03 05:38:04;;;;;;;8.15;7.35;;;;;;;6.31;75.89;95726.94;5015301;28;20210;-70
2022/12/03 05:40:34;;;;;;;8.27;7.43;;;;;;;6.31;75.65;95737.91;5015124;28;20627;-73
2022/12/03 05:43:01;;;;;;;9.75;8.80;;;;;;;6.29;75.83;95740.16;5015306;28;20206;-70
2022/12/03 05:45:34;;;;;;;8.75;7.95;;;;;;;6.28;75.50;95736.56;5015021;28;20237;-72
2022/12/03 05:48:06;;;;;;;7.82;7.20;;;;;;;6.24;75.79;95743.78;5014861;28;20195;-69
2022/12/03 05:50:36;;;;;;;7.70;7.00;;;;;;;6.21;75.75;95741.69;5015884;28;20195;-69
2022/12/03 05:53:08;;;;;;;8.15;7.45;;;;;;;6.25;75.56;95745.44;5015744;28;20600;-69
2022/12/03 05:55:37;;;;;;;7.90;7.20;;;;;;;6.23;76.24;95743.00;5015170;28;20223;-69
2022/12/03 05:58:05;;;;;;;6.88;6.38;;;;;;;6.25;75.94;95751.72;4998721;28;20202;-72
2022/12/03 06:00:37;;;;;;;7.00;6.50;;;;;;;6.24;75.78;95755.56;5015898;28;20466;-70
2022/12/03 06:03:06;;;;;;;6.43;5.93;;;;;;;6.22;75.49;95760.56;5015805;28;20187;-67
2022/12/03 06:05:37;;;;;;;6.80;6.30;;;;;;;6.22;75.83;95760.56;5015323;28;20202;-71
2022/12/03 06:08:05;;;;;;;5.75;5.35;;;;;;;6.25;75.77;95759.13;5016472;28;20258;-70
2022/12/03 06:10:36;;;;;;;7.18;6.65;;;;;;;6.26;75.81;95761.56;5018114;28;20195;-71
2022/12/03 06:13:05;;;;;;;7.13;6.53;;;;;;;6.30;75.69;95761.75;5020083;28;20203;-71
2022/12/03 06:15:34;;;;;;;6.97;6.38;;;;;;;6.30;75.79;95769.16;5017103;28;20203;-72
2022/12/03 06:18:02;;;;;;;6.70;6.10;;;;;;;6.33;75.71;95768.53;5016828;28;20214;-71
2022/12/03 06:20:30;;;;;;;7.53;6.78;;;;;;;6.34;75.26;95765.47;5017157;28;20206;-72
2022/12/03 06:22:58;;;;;;;6.82;6.32;;;;;;;6.32;75.39;95765.00;5016155;28;20612;-71
2022/12/03 06:25:29;;;;;;;6.85;6.35;;;;;;;6.34;75.39;95772.91;5016216;28;20242;-71
2022/12/03 06:27:57;;;;;;;6.60;6.10;;;;;;;6.30;75.28;95778.19;5016718;28;20639;-74
2022/12/03 06:30:29;;;;;;;6.40;5.97;;;;;;;6.30;75.51;95772.69;5014383;28;20643;-72
2022/12/03 06:32:57;;;;;;;6.20;5.70;;;;;;;6.31;75.56;95771.56;5015307;28;20202;-71
2022/12/03 06:35:24;;;;;;;6.40;5.90;;;;;;;6.31;75.36;95776.25;5015743;28;20206;-70
2022/12/03 06:37:52;;;;;;;6.47;5.97;;;;;;;6.30;75.71;95774.63;5017248;28;20195;-70
2022/12/03 06:40:23;;;;;;;6.25;5.78;;;;;;;6.36;75.39;95778.91;5017208;28;20565;-70
2022/12/03 06:42:51;;;;;;;6.25;5.78;;;;;;;6.36;75.68;95774.22;5017007;28;20249;-70
2022/12/03 06:45:19;;;;;;;6.20;5.70;;;;;;;6.39;75.63;95773.59;5016205;28;20222;-70
2022/12/03 06:47:51;;;;;;;6.35;5.85;;;;;;;6.35;75.61;95766.28;5016754;28;20207;-70
2022/12/03 06:50:19;;;;;;;7.22;6.63;;;;;;;6.37;75.90;95762.13;5017565;28;20195;-70
2022/12/03 06:52:50;;;;;;;8.07;7.35;;;;;;;6.39;75.62;95767.28;5016624;28;20260;-71
2022/12/03 06:55:18;;;;;;;7.25;6.65;;;;;;;6.40;75.74;95760.72;5016644;28;20219;-70
2022/12/03 06:57:46;;;;;;;7.55;6.95;;;;;;;6.41;75.69;95765.06;5017212;28;20211;-70
2022/12/03 07:00:15;;;;;;;6.88;6.38;;;;;;;6.39;75.92;95775.50;5020053;28;20195;-70
2022/12/03 07:02:44;;;;;;;7.35;6.75;;;;;;;6.37;75.62;95772.28;5021284;28;20191;-70
2022/12/03 07:05:21;;;;;;;7.20;6.60;;;;;;;6.38;75.50;95779.38;5021059;28;20202;-70
2022/12/03 07:07:54;;;;;;;6.05;5.53;;;;;;;6.33;75.61;95776.75;5020375;28;20198;-70
2022/12/03 07:10:22;;;;;;;6.55;6.05;;;;;;;6.33;75.74;95783.06;5021099;28;20238;-70
2022/12/03 07:12:51;;;;;;;6.05;5.55;;;;;;;6.35;75.79;95793.69;5021372;28;20199;-70
2022/12/03 07:15:19;;;;;;;4.53;4.22;;;;;;;6.32;75.52;95786.91;5020326;28;20206;-70
2022/12/03 07:17:47;;;;;;;6.90;6.30;;;;;;;6.31;75.91;95789.94;5020742;28;20207;-70
2022/12/03 07:20:19;;;;;;;5.30;4.90;;;;;;;6.32;76.05;95789.66;5019697;28;20199;-70
2022/12/03 07:22:49;;;;;;;6.10;5.60;;;;;;;6.33;75.54;95793.22;5019733;28;20198;-70
2022/12/03 07:25:23;;;;;;;5.13;4.72;;;;;;;6.30;75.84;95796.56;5019760;28;20233;-70
2022/12/03 07:27:51;;;;;;;5.57;5.07;;;;;;;6.32;75.99;95797.03;5036476;28;20191;-70
2022/12/03 07:30:37;;;;;;;5.60;5.20;;;;;;;6.31;76.15;95801.72;4998367;28;20233;-70
2022/12/03 07:33:07;;;;;;;5.60;5.20;;;;;;;6.29;75.59;95798.50;5020109;28;20202;-70
2022/12/03 07:35:37;;;;;;;6.00;5.60;;;;;;;6.30;76.12;95807.50;5020457;28;20205;-70
2022/12/03 07:38:07;;;;;;;6.70;6.20;;;;;;;6.29;76.16;95808.63;5020107;28;20242;-70
2022/12/03 07:40:35;;;;;;;6.47;5.88;;;;;;;6.32;75.95;95817.06;5020194;28;20213;-70
2022/12/03 07:43:04;;;;;;;6.80;6.20;;;;;;;6.36;75.73;95812.56;5020991;28;20195;-69
2022/12/03 07:45:32;;;;;;;6.90;6.30;;;;;;;6.36;75.87;95806.28;5020003;28;20195;-69
2022/12/03 07:48:01;;;;;;;6.55;6.00;;;;;;;6.35;76.06;95808.19;5020266;28;20203;-70
2022/12/03 07:50:33;;;;;;;6.57;5.90;;;;;;;6.35;75.94;95807.38;5020063;28;20203;-70
2022/12/03 07:53:01;;;;;;;7.50;6.80;;;;;;;6.36;75.83;95815.31;5020936;28;20290;-70
2022/12/03 07:55:31;;;;;;;6.93;6.25;;;;;;;6.34;75.25;95812.06;5019744;28;20214;-70
2022/12/03 07:58:00;;;;;;;7.55;6.85;;;;;;;6.34;75.82;95811.25;5019031;28;20226;-70
2022/12/03 08:00:29;;;;;;;7.03;6.50;;;;;;;6.39;75.76;95811.97;5019954;28;20207;-70
2022/12/03 08:02:58;;;;;;;7.55;6.80;;;;;;;6.44;75.26;95808.28;5020522;28;20230;-70
2022/12/03 08:05:28;;;;;;;7.55;6.78;;;;;;;6.48;75.26;95812.03;5020685;28;20195;-70
2022/12/03 08:07:58;;;;;;;9.90;7.20;;;;;;;6.50;75.23;95805.13;5036932;28;20190;-70
2022/12/03 08:10:28;;;;;;;6.65;6.05;;;;;;;6.53;75.27;95811.09;5020455;28;20198;-70
2022/12/03 08:13:01;;;;;;;6.20;5.70;;;;;;;6.55;74.43;95811.63;5019832;28;20234;-70
2022/12/03 08:15:31;;;;;;;6.13;5.63;;;;;;;6.53;74.32;95809.16;5019440;28;20301;-70
2022/12/03 08:18:03;;;;;;;7.07;6.45;;;;;;;6.54;74.63;95819.03;5019155;28;20317;-70
2022/12/03 08:20:34;;;;;;;6.90;6.30;;;;;;;6.55;74.22;95817.09;5020354;28;20202;-70
2022/12/03 08:23:09;;;;;;;6.20;5.57;;;;;;;6.54;74.50;95821.78;5020528;28;20195;-70
2022/12/03 08:25:41;;;;;;;5.82;5.32;;;;;;;6.54;74.43;95831.94;5019207;28;20238;-70
2022/12/03 08:28:17;;;;;;;6.43;5.93;;;;;;;6.56;74.41;95830.47;5019980;28;20690;-70
2022/12/03 08:30:47;;;;;;;6.15;5.57;;;;;;;6.56;74.27;95832.41;5019480;28;20207;-70
2022/12/03 08:33:23;;;;;;;5.88;5.38;;;;;;;6.57;74.35;95831.28;5019401;28;20294;-70
2022/12/03 08:35:51;;;;;;;6.28;5.78;;;;;;;6.59;74.25;95834.53;5021067;28;20210;-70
2022/12/03 08:38:22;;;;;;;6.22;5.72;;;;;;;6.65;74.07;95836.06;5020377;28;20226;-70
2022/12/03 08:40:58;;;;;;;5.38;4.97;;;;;;;6.68;73.97;95827.19;5019786;28;20233;-70
2022/12/03 08:43:26;;;;;;;5.93;5.38;;;;;;;6.73;74.21;95827.91;5020038;28;20233;-70
2022/12/03 08:45:56;;;;;;;5.60;5.20;;;;;;;6.76;73.97;95829.22;5019750;28;20352;-70
2022/12/03 08:48:43;;;;;;;5.75;5.28;;;;;;;6.79;73.51;95836.81;5019464;28;20202;-70
2022/12/03 08:51:15;;;;;;;6.18;5.57;;;;;;;6.79;73.23;95830.50;5019271;28;20195;-70
2022/12/03 08:53:46;;;;;;;5.40;4.90;;;;;;;6.83;73.30;95824.13;5019506;28;20214;-70
2022/12/03 08:56:28;;;;;;;5.50;5.10;;;;;;;6.85;73.06;95832.03;5019646;28;20191;-70
2022/12/03 08:58:58;;;;;;;5.28;4.88;;;;;;;6.83;72.46;95826.06;5019599;28;20188;-70
2022/12/03 09:01:40;;;;;;;6.00;5.50;;;;;;;6.86;72.74;95825.41;5020488;28;20249;-70
2022/12/03 09:04:23;;;;;;;5.93;5.43;;;;;;;6.92;73.08;95826.91;5020381;28;20220;-70
2022/12/03 09:06:52;;;;;;;6.05;5.63;;;;;;;6.91;72.63;95825.31;5020359;28;20198;-70
2022/12/03 09:09:23;;;;;;;6.57;5.97;;;;;;;6.94;73.13;95824.69;5020932;28;20198;-70
2022/12/03 09:11:57;;;;;;;7.25;6.65;;;;;;;6.94;72.47;95832.91;5020688;28;20187;-70
2022/12/03 09:14:25;;;;;;;6.78;6.18;;;;;;;6.95;72.88;95823.56;5020782;28;20225;-70
2022/12/03 09:16:55;;;;;;;6.10;5.60;;;;;;;6.97;72.90;95821.28;5020662;28;20203;-70
2022/12/03 09:19:24;;;;;;;7.00;6.40;;;;;;;7.00;72.71;95815.19;5020786;28;20516;-70
2022/12/03 09:21:53;;;;;;;7.53;6.65;;;;;;;6.98;72.50;95817.44;5019922;28;20281;-70
2022/12/03 09:24:21;;;;;;;7.05;6.45;;;;;;;7.00;72.48;95816.00;5021057;28;20191;-70
2022/12/03 09:26:49;;;;;;;6.53;6.03;;;;;;;7.00;72.42;95815.19;5020218;28;20242;-69
2022/12/03 09:29:19;;;;;;;6.68;6.07;;;;;;;6.98;72.26;95817.44;5020388;28;20195;-70
2022/12/03 09:31:48;;;;;;;6.43;5.93;;;;;;;6.95;72.00;95821.63;5020888;28;20265;-70
2022/12/03 09:34:16;;;;;;;7.25;6.65;;;;;;;6.98;72.36;95823.75;5019993;28;20641;-70
2022/12/03 09:36:46;;;;;;;6.97;6.45;;;;;;;7.02;72.31;95817.63;5036066;28;20663;-70
2022/12/03 09:39:12;;;;;;;6.90;6.40;;;;;;;7.03;72.49;95825.53;5019696;28;20600;-70
2022/12/03 09:41:44;;;;;;;6.75;6.15;;;;;;;7.04;71.93;95815.38;5018754;28;20218;-70
2022/12/03 09:44:16;;;;;;;7.22;6.57;;;;;;;7.02;71.99;95817.63;5018945;28;20195;-70
2022/12/03 09:46:47;;;;;;;8.02;7.32;;;;;;;7.03;72.17;95814.56;5019690;28;20203;-70
2022/12/03 09:49:20;;;;;;;9.23;8.32;;;;;;;7.09;72.15;95818.00;5019448;28;20601;-70
2022/12/03 09:51:47;;;;;;;7.65;6.95;;;;;;;7.13;72.32;95808.03;5020367;28;20249;-70
2022/12/03 09:54:22;;;;;;;7.78;6.72;;;;;;;7.11;72.03;95802.84;5021310;28;20183;-70
2022/12/03 09:56:49;;;;;;;7.55;6.95;;;;;;;7.11;71.71;95802.84;5020275;28;20280;-70
2022/12/03 09:59:26;;;;;;;7.15;6.55;;;;;;;7.14;71.39;95791.25;5019906;28;20184;-70
2022/12/03 10:02:00;;;;;;;7.07;6.38;;;;;;;7.17;71.49;95798.84;5019278;28;20277;-70
2022/12/03 10:04:30;;;;;;;8.00;7.28;;;;;;;7.10;71.75;95795.75;5018733;28;20191;-70
2022/12/03 10:06:59;;;;;;;6.85;6.28;;;;;;;7.13;71.96;95797.06;5017847;28;20202;-70
2022/12/03 10:09:29;;;;;;;7.78;7.07;;;;;;;7.12;71.48;95781.72;5017936;28;20202;-70
2022/12/03 10:11:57;;;;;;;8.43;7.72;;;;;;;7.15;72.07;95783.81;5020245;28;20191;-70
2022/12/03 10:14:26;;;;;;;7.78;7.18;;;;;;;7.18;71.81;95784.00;5018044;28;20210;-70
2022/12/03 10:16:54;;;;;;;8.48;7.68;;;;;;;7.24;72.16;95780.00;5018066;28;20223;-70
2022/12/03 10:19:26;;;;;;;8.35;7.55;;;;;;;7.26;71.95;95781.63;5019515;28;20203;-70
2022/12/03 10:21:55;;;;;;;8.43;7.72;;;;;;;7.28;71.43;95782.13;5019959;28;20206;-70
2022/12/03 10:24:27;;;;;;;8.23;7.53;;;;;;;7.30;71.58;95774.38;5019751;28;20195;-70
2022/12/03 10:26:57;;;;;;;8.20;7.40;;;;;;;7.29;71.47;95773.56;5019268;28;20242;-70
2022/12/03 10:29:27;;;;;;;8.15;7.45;;;;;;;7.36;71.62;95781.34;5018740;28;20211;-70
2022/12/03 10:32:03;;;;;;;8.90;8.10;;;;;;;7.38;71.44;95781.88;5019196;28;20245;-70
2022/12/03 10:34:36;;;;;;;8.80;7.90;;;;;;;7.40;71.07;95771.38;5024044;28;20232;-70
2022/12/03 10:37:16;;;;;;;8.70;7.90;;;;;;;7.35;70.77;95777.81;5023914;28;20219;-70
2022/12/03 10:39:57;;;;;;;8.60;7.80;;;;;;;7.37;71.05;95769.25;5040092;28;20203;-69
2022/12/03 10:42:31;;;;;;;9.18;7.90;;;;;;;7.36;70.90;95770.38;5024763;28;20242;-70
2022/12/03 10:45:17;;;;;;;8.35;7.60;;;;;;;7.39;70.81;95772.50;5023819;28;20206;-70
2022/12/03 10:48:06;;;;;;;8.18;7.38;;;;;;;7.38;70.90;95776.38;5039713;28;20206;-69
2022/12/03 10:50:35;;;;;;;8.82;8.02;;;;;;;7.43;70.90;95768.00;5023963;28;20302;-69
2022/12/03 10:53:07;;;;;;;7.32;6.72;;;;;;;7.45;70.62;95765.75;5024616;28;20191;-70
2022/12/03 10:55:39;;;;;;;7.57;6.97;;;;;;;7.46;70.45;95759.94;5023001;28;20227;-69
2022/12/03 10:58:11;;;;;;;8.43;7.60;;;;;;;7.48;70.42;95756.91;5023520;28;20226;-70
2022/12/03 11:00:41;;;;;;;8.32;7.70;;;;;;;7.52;70.79;95760.63;5021641;28;20203;-70
2022/12/03 11:03:21;;;;;;;8.15;7.35;;;;;;;7.51;70.40;95750.75;5023685;28;20195;-70
2022/12/03 11:05:51;;;;;;;8.32;7.60;;;;;;;7.52;70.38;95757.88;5022503;28;20203;-69
2022/12/03 11:08:23;;;;;;;8.15;7.45;;;;;;;7.50;70.66;95751.88;5022614;28;20180;-70
2022/12/03 11:10:58;;;;;;;7.68;6.97;;;;;;;7.54;70.80;95755.63;5038875;28;20260;-70
2022/12/03 11:13:48;;;;;;;7.78;7.18;;;;;;;7.55;70.63;95742.69;5022869;28;20206;-70
2022/12/03 11:16:54;;;;;;;8.15;7.40;;;;;;;7.52;70.39;95740.59;5022402;28;20221;-70
2022/12/03 11:19:43;;;;;;;7.95;7.35;;;;;;;7.52;70.54;95746.91;5022257;28;20211;-70
2022/12/03 11:22:46;;;;;;;7.90;7.20;;;;;;;7.46;70.43;95748.97;5022707;28;20272;-70
2022/12/03 11:25:51;;;;;;;7.85;7.15;;;;;;;7.48;70.84;95751.41;5021488;28;20240;-70
2022/12/03 11:28:54;;;;;;;8.13;7.32;;;;;;;7.51;71.04;95739.78;5021652;28;20199;-69
2022/12/03 11:31:44;;;;;;;8.23;7.53;;;;;;;7.50;70.56;95748.34;5021111;28;20209;-69
2022/12/03 11:34:48;;;;;;;8.10;7.40;;;;;;;7.50;70.54;95740.91;5032526;28;20203;-69
2022/12/03 11:37:33;;;;;;;8.63;7.75;;;;;;;7.57;70.50;95741.25;5020796;28;20195;-69
2022/12/03 11:40:34;;;;;;;8.02;7.32;;;;;;;7.56;70.24;95734.16;5021450;28;20217;-69
2022/12/03 11:43:04;;;;;;;7.88;7.07;;;;;;;7.59;70.53;95739.03;4962208;28;20197;-70
2022/12/03 11:45:35;;;;;;;9.32;8.35;;;;;;;7.62;70.63;95737.56;4945584;29;20253;-70
2022/12/03 11:48:14;;;;;;;8.15;7.45;;;;;;;7.63;70.54;95731.75;4947059;29;20268;-70
2022/12/03 11:50:43;;;;;;;7.68;6.95;;;;;;;7.63;70.32;95729.00;4946031;29;20201;-70
2022/12/03 11:53:21;;;;;;;7.75;7.15;;;;;;;7.64;70.29;95735.31;4945687;29;20216;-70
2022/12/03 11:56:04;;;;;;;8.02;7.22;;;;;;;7.58;69.90;95726.41;4945731;29;20205;-70
2022/12/03 11:58:33;;;;;;;8.38;7.57;;;;;;;7.59;70.37;95719.81;4947889;29;20248;-69
2022/12/03 12:01:02;;;;;;;8.65;7.85;;;;;;;7.62;70.43;95723.81;4958717;29;20215;-69
2022/12/03 12:03:34;;;;;;;8.77;7.97;;;;;;;7.57;70.22;95724.78;4945184;29;20620;-70
2022/12/03 12:06:09;;;;;;;8.45;7.63;;;;;;;7.55;69.97;95727.03;4961804;29;20205;-70
2022/12/03 12:08:42;;;;;;;9.02;8.13;;;;;;;7.56;70.38;95728.66;4945458;29;20210;-70
2022/12/03 12:11:21;;;;;;;8.20;7.50;;;;;;;7.54;70.59;95733.66;4961428;29;20205;-70
2022/12/03 12:14:08;;;;;;;8.48;7.78;;;;;;;7.52;70.40;95726.88;4977448;28;20211;-70
2022/12/03 12:16:52;;;;;;;8.02;7.32;;;;;;;7.55;70.64;95724.28;5036813;28;20206;-70
2022/12/03 12:19:41;;;;;;;7.70;7.10;;;;;;;7.59;70.19;95721.72;5021139;28;20207;-70
2022/12/03 12:22:19;;;;;;;9.77;8.80;;;;;;;7.60;70.27;95717.84;5020829;28;20198;-70